Medenales, New Mexico
Current Conditions -  °F | °C
As of 12:35 AM on Wednesday 22 Oct 2014 (Local Time) from KLAM Reporting Station
Overcast Overcast  
Wind Chill: 51°   Ceiling: 10000
Heat Index: 51°   Visibility: 10mi
Dew Point: 44°   Wind: 5mph
Humidity: 77%   Direction: 190°S
Pressure: 30.18"   Gusts: NA
Location:  36.1769°N, 106.184°W
Report Text: KLAM 220635Z AUTO 19004KT 10SM OVC100 11/07 A3018 RMK AO2 T01070068
Loading
Personal Weather Stations






























Interactive Weather Map
Tropical Storm Tracking
New forecast layout! Learn more

10-Day Weather Forecast

Advertisements
Track Severe Weather on mobile